Portada
METAR-TAF:

METAR-TAF

Aeroports :

Savonlinna, Finlàndia

latitud: 61-57N, longitud: 028-57E, altitud: 95 m

Observació

L'informe es va fer fa 44 minuts, a les 16:50 UTC
Vent 6 kt del Oest/Nord-Oest
Temperatura -3°C
Humitat 50%
Pressió 1017 hPa
Visibilitat 10 km o més
sense núvols per sota de 1500 mi sense presència de cumulonimbus.

METAR: EFSA 291650Z AUTO 30006KT CAVOK M03/M12 Q1017

Hora: 20:34 (17:34 UTC)


TAF: manca

Observacions i pronòstics meteorològics de més de 4000 aeroports (METAR i TAF).

Les estacions disponibles són els punts grocs i vermells al mapa.

Posi el ratolí al punt desitjat per veure el nom de l'estació.

Feu clic per veure les observacions i els pronòstics meteorològics.

Per canviar el mapa: feu clic els botons verds amb una creu de color negre per apropar; al botó verd amb un guió per allunyar la imatge; o en les fletxes verdes per a mapes adjacents.


METAR-TAF: